This is the latest recevied weather packets stored in our database for station/object DF7ER-12. If no packets are shown the sender has not sent any weather packets the latest 10 day(s).
| Time | Temp. | Humidity | Pressure | Rain* | Wind** | Luminosity | Snow |
|---|---|---|---|---|---|---|---|
| 1777773970 | 16.67° C | 72% | 1002.6 hPa | - | - | - | - |
| 1777773670 | 17.78° C | 71% | 1002.6 hPa | - | - | - | - |
| 1777773370 | 16.11° C | 74% | 1002.7 hPa | - | - | - | - |
| 1777773070 | 17.22° C | 70% | 1002.9 hPa | - | - | - | - |
| 1777772770 | 16.67° C | 71% | 1002.9 hPa | - | - | - | - |
| 1777772471 | 17.78° C | 70% | 1003 hPa | - | - | - | - |
| 1777772170 | 17.22° C | 71% | 1003.1 hPa | - | - | - | - |
| 1777771870 | 17.22° C | 71% | 1003.1 hPa | - | - | - | - |
| 1777771571 | 17.22° C | 70% | 1003.1 hPa | - | - | - | - |
| 1777771271 | 16.67° C | 72% | 1003.2 hPa | - | - | - | - |
| 1777770970 | 17.78° C | 70% | 1003.4 hPa | - | - | - | - |
| 1777770671 | 17.78° C | 71% | 1003.4 hPa | - | - | - | - |
| 1777770370 | 17.22° C | 71% | 1003.4 hPa | - | - | - | - |
| 1777770070 | 17.22° C | 74% | 1003.5 hPa | - | - | - | - |
| 1777769621 | 17.22° C | 72% | 1003.4 hPa | - | - | - | - |
| 1777769321 | 17.78° C | 71% | 1003.5 hPa | - | - | - | - |
| 1777769021 | 17.78° C | 73% | 1003.3 hPa | - | - | - | - |
| 1777768721 | 17.78° C | 73% | 1003.4 hPa | - | - | - | - |
| 1777768121 | 16.67° C | 73% | 1003.4 hPa | - | - | - | - |
| 1777767821 | 17.22° C | 74% | 1003.3 hPa | - | - | - | - |
| 1777767521 | 17.22° C | 72% | 1003.3 hPa | - | - | - | - |
| 1777767222 | 16.67° C | 74% | 1003.3 hPa | - | - | - | - |
| 1777766921 | 16.67° C | 74% | 1003.4 hPa | - | - | - | - |
| 1777766621 | 17.78° C | 71% | 1003.5 hPa | - | - | - | - |
| 1777766321 | 17.78° C | 72% | 1003.3 hPa | - | - | - | - |
* Rain since midnight (hover to see other rain measurements)
** Current wind speed in m/s (hover to see current wind gust speed)